Time;durP1;ratioP1;P1;durP2;ratioP2;P2;SDS_P1;SDS_P2;PMS_P1;PMS_P2;Temp;Humidity;BMP_temperature;BMP_pressure;BME280_temperature;BME280_humidity;BME280_pressure;Samples;Min_cycle;Max_cycle;Signal;HPM_P1;HPM_P2
2021/04/28 00:01:50;;;;;;;7.50;2.17;;;;;;;16.67;41.06;101155.03;5033097;28;20519;-78
2021/04/28 00:04:15;;;;;;;14.50;2.40;;;;;;;16.56;41.53;101142.88;5032921;28;20044;-78
2021/04/28 00:06:41;;;;;;;13.02;2.85;;;;;;;16.68;41.15;101147.56;5033055;28;20395;-77
2021/04/28 00:09:07;;;;;;;8.85;2.63;;;;;;;16.87;40.91;101139.56;5031694;28;20025;-78
2021/04/28 00:11:34;;;;;;;6.53;1.63;;;;;;;16.67;41.19;101137.69;5032926;28;20526;-79
2021/04/28 00:14:00;;;;;;;6.50;2.10;;;;;;;16.87;40.92;101145.88;5032817;28;20079;-78
2021/04/28 00:16:26;;;;;;;7.32;2.28;;;;;;;16.09;41.97;101144.00;5032878;28;20087;-77
2021/04/28 00:18:52;;;;;;;8.65;1.90;;;;;;;16.62;40.89;101139.53;5032827;28;20476;-77
2021/04/28 00:21:18;;;;;;;9.95;2.22;;;;;;;16.90;40.45;101141.63;5031573;28;20045;-78
2021/04/28 00:23:44;;;;;;;8.18;2.20;;;;;;;16.60;41.43;101141.00;5032831;28;20087;-78
2021/04/28 00:26:15;;;;;;;8.10;2.08;;;;;;;16.59;41.52;101154.00;5031279;28;20376;-78
2021/04/28 00:28:42;;;;;;;16.08;3.83;;;;;;;16.87;41.29;101140.38;5032520;28;20026;-78
2021/04/28 00:31:08;;;;;;;10.98;3.55;;;;;;;17.23;41.06;101137.88;5032730;28;20080;-78
2021/04/28 00:33:33;;;;;;;6.90;2.40;;;;;;;16.69;42.98;101150.00;5032476;28;20061;-77
2021/04/28 00:36:00;;;;;;;13.90;3.15;;;;;;;16.31;43.43;101151.09;5032558;28;20105;-77
2021/04/28 00:38:26;;;;;;;8.52;2.35;;;;;;;16.60;42.49;101141.81;5032674;28;20025;-78
2021/04/28 00:40:52;;;;;;;8.55;3.10;;;;;;;16.28;43.15;101150.97;5032509;28;20082;-78
2021/04/28 00:43:19;;;;;;;8.13;2.50;;;;;;;16.00;43.63;101150.78;5032459;28;20040;-77
2021/04/28 00:45:45;;;;;;;14.98;3.00;;;;;;;16.26;42.78;101145.00;5032574;28;20040;-77
2021/04/28 00:48:12;;;;;;;10.10;2.45;;;;;;;15.89;43.80;101144.88;5032250;28;20124;-77
2021/04/28 00:50:43;;;;;;;8.07;2.50;;;;;;;16.06;42.45;101143.91;5032398;28;20099;-80
2021/04/28 00:53:11;;;;;;;8.35;2.10;;;;;;;16.00;43.07;101137.78;5032421;28;20036;-78
2021/04/28 00:55:37;;;;;;;10.98;3.25;;;;;;;16.27;42.46;101144.66;5031025;28;20411;-77
2021/04/28 00:58:04;;;;;;;15.02;2.58;;;;;;;16.39;42.04;101143.84;5032388;28;20383;-78
2021/04/28 01:00:30;;;;;;;10.25;2.83;;;;;;;16.03;42.46;101147.34;5032315;28;20026;-78
2021/04/28 01:02:56;;;;;;;9.60;2.20;;;;;;;16.34;41.69;101139.38;5032232;28;20034;-77
2021/04/28 01:05:22;;;;;;;9.43;2.83;;;;;;;16.37;41.55;101146.16;5032313;28;20108;-77
2021/04/28 01:07:49;;;;;;;13.48;3.60;;;;;;;15.97;41.86;101129.41;5032239;28;20034;-77
2021/04/28 01:10:21;;;;;;;7.45;2.17;;;;;;;16.37;40.93;101138.69;5032231;28;20495;-78
2021/04/28 01:12:46;;;;;;;8.15;1.98;;;;;;;16.37;41.15;101140.63;5031004;28;20500;-77
2021/04/28 01:15:15;;;;;;;10.38;3.28;;;;;;;16.31;41.74;101142.81;5032209;28;20128;-77
2021/04/28 01:17:41;;;;;;;15.02;4.90;;;;;;;16.57;41.88;101138.97;5032217;28;20037;-77
2021/04/28 01:20:10;;;;;;;10.52;3.53;;;;;;;16.34;42.24;101139.38;5032087;28;20026;-78
2021/04/28 01:22:39;;;;;;;13.88;4.05;;;;;;;16.85;41.30;101134.41;5032140;28;20052;-77
2021/04/28 01:25:07;;;;;;;18.02;4.22;;;;;;;15.96;43.76;101128.63;5032537;28;20106;-77
2021/04/28 01:27:36;;;;;;;13.35;3.22;;;;;;;16.16;43.21;101126.13;5032051;28;20529;-77
2021/04/28 01:30:04;;;;;;;13.63;3.22;;;;;;;15.94;42.67;101121.81;5032145;28;20072;-77
2021/04/28 01:32:30;;;;;;;9.75;2.35;;;;;;;15.85;42.66;101140.38;5030732;28;20048;-78
2021/04/28 01:34:57;;;;;;;12.65;4.10;;;;;;;16.21;41.88;101139.69;5030770;28;20033;-78
2021/04/28 01:37:25;;;;;;;11.40;3.78;;;;;;;16.27;41.69;101133.63;5032057;28;20398;-78
2021/04/28 01:39:51;;;;;;;15.05;3.42;;;;;;;16.48;42.07;101128.03;5033909;28;20137;-79
2021/04/28 01:42:18;;;;;;;6.28;2.45;;;;;;;15.49;43.47;101133.53;5035545;28;20041;-78
2021/04/28 01:44:47;;;;;;;12.63;4.22;;;;;;;15.85;42.56;101130.16;5035532;28;20033;-78
2021/04/28 01:47:14;;;;;;;13.43;3.78;;;;;;;15.71;42.77;101135.97;5035377;28;20055;-78
2021/04/28 01:49:41;;;;;;;12.55;3.88;;;;;;;15.61;43.40;101141.91;5035479;28;20105;-78
2021/04/28 01:52:07;;;;;;;11.18;3.33;;;;;;;15.60;42.95;101144.97;5035440;28;20117;-77
2021/04/28 01:54:33;;;;;;;11.05;3.97;;;;;;;15.77;42.92;101153.09;5035337;28;20112;-78
2021/04/28 01:56:59;;;;;;;13.35;3.22;;;;;;;15.82;42.45;101150.16;5035456;28;20109;-77
2021/04/28 01:59:25;;;;;;;12.20;3.90;;;;;;;15.62;42.87;101149.00;5035372;28;20057;-78
2021/04/28 02:01:55;;;;;;;12.45;3.63;;;;;;;15.49;43.13;101153.63;5035314;28;20112;-78
2021/04/28 02:04:21;;;;;;;11.98;3.42;;;;;;;15.31;43.33;101140.31;5033941;28;20041;-77
2021/04/28 02:06:49;;;;;;;15.00;4.20;;;;;;;15.17;43.84;101137.81;5035257;28;20044;-77
2021/04/28 02:09:15;;;;;;;15.50;3.92;;;;;;;15.04;43.78;101141.63;5033969;28;20443;-77
2021/04/28 02:11:41;;;;;;;15.93;4.22;;;;;;;15.82;42.33;101148.19;5035143;28;20372;-77
2021/04/28 02:14:07;;;;;;;17.20;4.38;;;;;;;15.85;42.80;101160.47;5035045;28;20092;-78
2021/04/28 02:16:39;;;;;;;15.43;3.72;;;;;;;15.39;43.74;101154.03;5035049;28;20022;-78
2021/04/28 02:19:08;;;;;;;15.05;3.42;;;;;;;15.13;44.22;101156.97;5033769;28;20036;-77
2021/04/28 02:21:38;;;;;;;8.00;3.70;;;;;;;15.21;44.33;101158.06;5033762;28;20033;-78
2021/04/28 02:24:06;;;;;;;13.57;3.65;;;;;;;15.50;43.37;101141.47;5033547;28;20117;-78
2021/04/28 02:26:32;;;;;;;12.20;4.32;;;;;;;15.07;44.37;101146.47;5033426;28;20076;-78
2021/04/28 02:28:58;;;;;;;13.50;5.10;;;;;;;15.45;42.94;101141.66;5033607;28;20021;-77
2021/04/28 02:31:23;;;;;;;14.70;5.13;;;;;;;15.43;43.37;101148.66;5034762;28;20037;-78
2021/04/28 02:33:49;;;;;;;10.77;4.65;;;;;;;15.45;43.29;101149.94;5033432;28;20025;-77
2021/04/28 02:36:15;;;;;;;12.80;4.30;;;;;;;15.54;43.12;101156.16;5034591;28;20025;-77
2021/04/28 02:38:57;;;;;;;16.40;6.60;;;;;;;15.81;43.00;101149.34;5034576;28;20483;-77
2021/04/28 02:41:23;;;;;;;16.58;5.45;;;;;;;15.45;43.88;101158.19;5034661;28;20040;-77
2021/04/28 02:43:52;;;;;;;10.45;4.28;;;;;;;14.74;44.51;101146.34;5034570;28;20109;-78
2021/04/28 02:46:20;;;;;;;16.35;4.93;;;;;;;16.15;41.85;101161.16;5034251;28;20030;-78
2021/04/28 02:48:51;;;;;;;16.63;5.07;;;;;;;15.77;42.36;101161.38;5034443;28;20034;-77
2021/04/28 02:51:16;;;;;;;15.80;4.57;;;;;;;15.91;42.07;101164.63;5034016;28;20380;-77
2021/04/28 02:53:44;;;;;;;19.10;4.55;;;;;;;15.85;42.18;101171.50;5034245;28;20022;-77
2021/04/28 02:56:12;;;;;;;13.73;5.70;;;;;;;16.11;42.20;101160.25;5034318;28;20036;-77
2021/04/28 02:58:39;;;;;;;13.05;4.45;;;;;;;15.76;42.48;101168.81;5034213;28;20451;-78
2021/04/28 03:01:05;;;;;;;13.48;4.80;;;;;;;16.01;41.50;101166.97;5033029;28;20072;-77
2021/04/28 03:03:33;;;;;;;14.93;4.43;;;;;;;15.58;42.24;101152.75;5034130;28;20021;-77
2021/04/28 03:05:59;;;;;;;8.35;4.18;;;;;;;15.91;41.86;101161.09;5032720;28;20060;-77
2021/04/28 03:08:25;;;;;;;8.52;4.20;;;;;;;15.78;42.00;101171.25;5034047;28;20068;-77
2021/04/28 03:10:51;;;;;;;20.77;4.90;;;;;;;16.11;41.55;101173.22;5032816;28;20059;-78
2021/04/28 03:13:17;;;;;;;11.75;4.63;;;;;;;15.83;42.31;101162.78;5034016;28;20037;-78
2021/04/28 03:15:45;;;;;;;15.40;4.35;;;;;;;15.74;42.18;101167.56;5033890;28;20037;-77
2021/04/28 03:18:14;;;;;;;13.80;4.95;;;;;;;15.05;42.96;101162.53;5032279;28;20059;-78
2021/04/28 03:20:42;;;;;;;13.00;4.83;;;;;;;15.41;42.50;101154.47;5033005;28;20133;-77
2021/04/28 03:23:12;;;;;;;18.40;5.90;;;;;;;15.94;41.62;101166.72;5033822;28;20064;-77
2021/04/28 03:25:40;;;;;;;9.40;4.57;;;;;;;15.95;41.11;101167.53;5033638;28;20029;-79
2021/04/28 03:28:06;;;;;;;18.38;6.15;;;;;;;16.45;40.48;101161.00;5033478;28;20036;-77
2021/04/28 03:30:32;;;;;;;13.45;4.57;;;;;;;15.64;41.15;101167.94;5033717;28;20033;-78
2021/04/28 03:32:57;;;;;;;10.45;4.53;;;;;;;15.84;40.97;101169.88;5033646;28;20383;-78
2021/04/28 03:35:23;;;;;;;15.70;4.97;;;;;;;15.84;41.52;101180.91;5033496;28;20025;-77
2021/04/28 03:37:48;;;;;;;22.60;5.82;;;;;;;16.17;40.51;101172.66;5033520;28;20048;-77
2021/04/28 03:40:14;;;;;;;20.17;6.18;;;;;;;15.57;41.57;101174.00;5033467;28;20039;-77
2021/04/28 03:42:40;;;;;;;10.40;4.88;;;;;;;15.33;42.19;101177.38;5033387;28;20091;-77
2021/04/28 03:45:06;;;;;;;19.50;5.65;;;;;;;15.70;41.54;101185.88;5033359;28;20026;-80
2021/04/28 03:47:32;;;;;;;14.00;4.65;;;;;;;15.76;41.41;101173.53;5033173;28;20049;-77
2021/04/28 03:49:58;;;;;;;19.15;6.03;;;;;;;15.82;41.28;101185.97;5033302;28;20024;-79
2021/04/28 03:52:24;;;;;;;15.35;5.68;;;;;;;15.91;40.78;101181.19;5033242;28;20026;-77
2021/04/28 03:54:50;;;;;;;14.82;5.53;;;;;;;15.75;41.33;101174.69;5032001;28;20140;-77
2021/04/28 03:57:15;;;;;;;15.77;5.55;;;;;;;16.18;40.27;101187.25;5033188;28;20030;-78
2021/04/28 03:59:41;;;;;;;9.80;4.40;;;;;;;16.08;40.19;101171.94;5033125;28;20087;-78
2021/04/28 04:02:07;;;;;;;21.35;7.25;;;;;;;16.16;40.81;101160.00;5032403;28;20029;-77
2021/04/28 04:04:34;;;;;;;11.25;5.03;;;;;;;15.60;40.96;101178.00;5032985;28;20048;-77
2021/04/28 04:07:00;;;;;;;16.83;4.65;;;;;;;15.63;41.10;101171.84;5033071;28;20104;-77
2021/04/28 04:09:25;;;;;;;12.68;4.78;;;;;;;15.27;41.62;101174.03;5032978;28;20109;-77
2021/04/28 04:11:52;;;;;;;11.15;4.60;;;;;;;15.30;41.93;101161.53;5032867;28;20464;-78
2021/04/28 04:14:17;;;;;;;12.45;5.15;;;;;;;16.15;39.89;101163.09;5031567;28;20392;-78
2021/04/28 04:16:43;;;;;;;8.63;4.70;;;;;;;15.71;40.67;101168.22;5032848;28;20044;-77
2021/04/28 04:19:09;;;;;;;13.65;4.90;;;;;;;15.19;41.45;101168.59;5032575;28;20041;-78
2021/04/28 04:21:34;;;;;;;18.40;5.97;;;;;;;15.34;40.98;101170.75;5031525;28;20032;-78
2021/04/28 04:24:00;;;;;;;12.73;4.65;;;;;;;15.70;40.54;101161.91;5032793;28;20561;-79
2021/04/28 04:26:25;;;;;;;13.70;6.70;;;;;;;15.42;40.81;101158.06;5032813;28;20025;-78
2021/04/28 04:28:51;;;;;;;12.20;5.13;;;;;;;15.18;41.04;101150.44;5032416;28;20029;-77
2021/04/28 04:31:16;;;;;;;16.63;5.80;;;;;;;15.20;40.63;101150.94;5032648;28;20040;-77
2021/04/28 04:33:45;;;;;;;13.30;5.68;;;;;;;15.42;40.84;101158.88;5030993;28;20071;-77
2021/04/28 04:36:11;;;;;;;21.35;5.78;;;;;;;15.20;41.00;101161.94;5031307;28;20079;-78
2021/04/28 04:38:36;;;;;;;11.95;5.25;;;;;;;15.61;40.05;101171.34;5031452;28;20057;-79
2021/04/28 04:41:02;;;;;;;13.18;6.05;;;;;;;15.23;39.77;101148.31;5031927;28;20439;-77
2021/04/28 04:43:28;;;;;;;19.60;6.20;;;;;;;15.58;39.69;101153.56;5032654;28;20029;-77
2021/04/28 04:45:53;;;;;;;12.35;4.78;;;;;;;14.94;40.85;101156.56;5032492;28;20033;-77
2021/04/28 04:48:19;;;;;;;14.85;5.05;;;;;;;14.90;41.17;101164.72;5032115;28;20088;-77
2021/04/28 04:50:45;;;;;;;16.35;5.25;;;;;;;15.11;40.31;101156.47;5031193;28;20032;-79
2021/04/28 04:53:11;;;;;;;9.48;4.53;;;;;;;15.22;40.12;101160.47;5031206;28;20091;-77
2021/04/28 04:55:36;;;;;;;14.05;6.03;;;;;;;15.01;40.33;101170.63;5030862;28;20527;-77
2021/04/28 04:58:02;;;;;;;13.98;4.93;;;;;;;15.35;39.50;101179.81;5032327;28;20084;-77
2021/04/28 05:00:28;;;;;;;13.45;5.32;;;;;;;14.91;40.43;101176.50;5032426;28;20091;-77
2021/04/28 05:02:54;;;;;;;12.50;5.43;;;;;;;15.49;39.53;101174.84;5032332;28;20030;-78
2021/04/28 05:05:19;;;;;;;12.30;5.85;;;;;;;15.63;39.11;101177.34;5032143;28;20037;-77
2021/04/28 05:07:45;;;;;;;15.88;4.95;;;;;;;15.29;39.66;101184.72;5030983;28;20025;-77
2021/04/28 05:10:12;;;;;;;13.10;5.32;;;;;;;15.14;39.43;101186.09;5032080;28;20091;-78
2021/04/28 05:12:39;;;;;;;13.60;5.55;;;;;;;15.48;39.04;101184.25;5031204;28;20025;-77
2021/04/28 05:15:06;;;;;;;11.70;6.32;;;;;;;15.77;39.02;101184.22;5034893;28;20030;-77
2021/04/28 05:17:32;;;;;;;26.63;6.72;;;;;;;15.85;38.91;101182.53;5036123;28;20036;-80
2021/04/28 05:19:58;;;;;;;13.32;5.60;;;;;;;15.58;38.92;101189.38;5036203;28;20037;-77
2021/04/28 05:22:26;;;;;;;16.00;5.35;;;;;;;15.38;38.92;101184.66;5036041;28;20029;-78
2021/04/28 05:24:51;;;;;;;12.40;5.55;;;;;;;15.63;38.54;101191.13;5036095;28;20053;-77
2021/04/28 05:27:17;;;;;;;12.05;5.45;;;;;;;15.15;39.97;101181.41;5036314;28;20419;-78
2021/04/28 05:29:43;;;;;;;11.80;5.13;;;;;;;16.05;38.63;101192.72;5035888;28;20033;-77
2021/04/28 05:32:08;;;;;;;11.13;4.50;;;;;;;16.06;39.30;101188.00;5035697;28;20095;-79
2021/04/28 05:34:34;;;;;;;11.48;5.40;;;;;;;15.68;39.57;101205.50;5035822;28;20029;-77
2021/04/28 05:36:59;;;;;;;9.63;4.60;;;;;;;15.30;40.44;101193.78;5035827;28;20033;-77
2021/04/28 05:39:25;;;;;;;14.80;6.15;;;;;;;15.91;39.47;101197.72;5035813;28;20040;-77
2021/04/28 05:41:52;;;;;;;9.43;4.50;;;;;;;15.60;39.59;101191.78;5035796;28;20096;-78
2021/04/28 05:44:18;;;;;;;17.08;5.28;;;;;;;15.46;39.75;101198.34;5035677;28;20033;-78
2021/04/28 05:46:46;;;;;;;13.02;4.95;;;;;;;15.71;39.57;101195.75;5035494;28;20053;-77
2021/04/28 05:49:11;;;;;;;16.60;5.85;;;;;;;15.76;39.74;101203.84;5035636;28;20030;-78
2021/04/28 05:51:37;;;;;;;8.07;4.88;;;;;;;15.69;40.15;101212.63;5035552;28;20036;-78
2021/04/28 05:54:02;;;;;;;14.15;5.15;;;;;;;15.81;39.53;101209.97;5035416;28;20026;-78
2021/04/28 05:56:28;;;;;;;13.38;5.65;;;;;;;15.66;39.92;101207.81;5035401;28;20025;-78
2021/04/28 05:58:53;;;;;;;9.38;4.72;;;;;;;15.22;40.29;101209.22;5035419;28;20041;-78
2021/04/28 06:01:19;;;;;;;5.88;3.67;;;;;;;15.54;39.00;101208.50;5035248;28;20047;-79
2021/04/28 06:03:45;;;;;;;13.35;6.40;;;;;;;15.13;40.04;101211.22;5035294;28;20040;-77
2021/04/28 06:06:12;;;;;;;19.85;6.10;;;;;;;16.04;38.72;101212.34;5035351;28;20384;-77
2021/04/28 06:08:38;;;;;;;14.10;5.38;;;;;;;15.10;40.27;101212.66;5035163;28;20168;-77
2021/04/28 06:11:03;;;;;;;20.23;7.43;;;;;;;16.12;38.71;101224.44;5035210;28;20516;-78
2021/04/28 06:13:29;;;;;;;9.48;4.60;;;;;;;15.41;40.00;101226.06;5035218;28;20033;-78
2021/04/28 06:15:54;;;;;;;13.18;5.45;;;;;;;15.72;39.19;101217.50;5035088;28;20033;-78
2021/04/28 06:18:20;;;;;;;12.57;5.65;;;;;;;15.26;39.63;101221.16;5035062;28;20109;-77
2021/04/28 06:20:46;;;;;;;7.03;4.13;;;;;;;15.32;38.93;101224.53;5035059;28;20033;-81
2021/04/28 06:23:11;;;;;;;9.75;5.05;;;;;;;16.03;38.27;101228.09;5035164;28;20034;-77
2021/04/28 06:25:37;;;;;;;18.70;5.80;;;;;;;16.04;38.53;101226.94;5034152;28;20075;-76
2021/04/28 06:28:03;;;;;;;7.80;4.15;;;;;;;16.36;37.84;101230.03;5034801;28;20052;-77
2021/04/28 06:30:28;;;;;;;15.57;5.22;;;;;;;15.59;38.84;101220.47;5034729;28;20029;-77
2021/04/28 06:32:54;;;;;;;9.25;4.63;;;;;;;15.37;39.26;101216.88;5034831;28;20033;-78
2021/04/28 06:35:20;;;;;;;18.95;5.88;;;;;;;15.91;39.13;101228.03;5033444;28;20048;-79
2021/04/28 06:37:46;;;;;;;11.77;6.03;;;;;;;15.50;40.07;101226.84;5023072;28;20029;-81
2021/04/28 06:40:13;;;;;;;15.32;5.47;;;;;;;15.72;39.91;101224.94;5022464;28;20079;-83
2021/04/28 06:42:38;;;;;;;11.85;4.78;;;;;;;15.36;40.12;101226.28;5020947;28;20029;-80
2021/04/28 06:45:05;;;;;;;11.20;5.10;;;;;;;15.68;38.95;101215.72;5022209;28;20033;-78
2021/04/28 06:47:31;;;;;;;10.95;5.22;;;;;;;15.01;40.68;101227.59;5019488;28;20051;-78
2021/04/28 06:49:56;;;;;;;15.27;6.90;;;;;;;14.93;40.56;101223.75;5025613;28;20034;-80
2021/04/28 06:52:22;;;;;;;12.52;5.85;;;;;;;14.99;40.94;101226.00;5025044;28;20032;-78
2021/04/28 06:54:48;;;;;;;15.30;5.10;;;;;;;14.82;41.10;101217.81;5025258;28;20029;-81
2021/04/28 06:57:14;;;;;;;12.63;5.65;;;;;;;16.23;38.89;101229.19;5021192;28;20061;-82
2021/04/28 06:59:39;;;;;;;16.08;6.00;;;;;;;15.64;39.63;101226.63;5022355;28;20025;-78
2021/04/28 07:02:05;;;;;;;13.52;5.00;;;;;;;15.94;39.16;101243.06;5025159;28;20026;-79
2021/04/28 07:04:31;;;;;;;14.48;6.40;;;;;;;15.71;39.52;101237.09;5023413;28;20027;-77
2021/04/28 07:06:56;;;;;;;15.73;6.03;;;;;;;15.58;39.57;101240.91;5023894;28;20018;-79
2021/04/28 07:09:22;;;;;;;17.75;5.72;;;;;;;15.68;39.51;101224.81;5022141;28;20049;-77
2021/04/28 07:11:47;;;;;;;11.27;6.20;;;;;;;15.51;39.58;101222.16;5023628;28;20022;-77
2021/04/28 07:14:13;;;;;;;22.92;7.95;;;;;;;15.62;39.60;101228.09;5024771;28;20384;-76
2021/04/28 07:16:39;;;;;;;14.65;5.75;;;;;;;15.80;39.08;101221.31;5024735;28;20048;-79
2021/04/28 07:19:05;;;;;;;16.70;6.05;;;;;;;15.55;39.30;101234.09;5021220;28;20022;-77
2021/04/28 07:21:30;;;;;;;13.23;6.40;;;;;;;15.45;39.55;101231.75;5032144;28;20493;-78
2021/04/28 07:23:56;;;;;;;19.02;7.35;;;;;;;16.22;38.83;101235.03;5032688;28;20033;-77
2021/04/28 07:26:22;;;;;;;13.68;5.90;;;;;;;16.24;38.20;101243.78;5033719;28;20030;-77
2021/04/28 07:28:51;;;;;;;17.80;6.80;;;;;;;15.39;39.88;101233.88;5033455;28;20052;-76
2021/04/28 07:31:18;;;;;;;9.13;5.30;;;;;;;15.52;39.29;101241.09;5033546;28;20022;-79
2021/04/28 07:33:44;;;;;;;15.85;6.15;;;;;;;15.70;39.04;101241.00;5033345;28;20549;-77
2021/04/28 07:36:10;;;;;;;11.02;5.32;;;;;;;15.39;39.74;101244.09;5033072;28;20065;-79
2021/04/28 07:38:36;;;;;;;12.98;6.03;;;;;;;15.56;39.62;101246.72;5024743;28;20041;-76
2021/04/28 07:41:01;;;;;;;21.38;6.68;;;;;;;15.75;39.36;101243.56;5012904;28;20029;-78
2021/04/28 07:43:27;;;;;;;14.45;5.70;;;;;;;16.02;38.13;101245.78;5012907;28;20040;-79
2021/04/28 07:45:53;;;;;;;11.63;5.28;;;;;;;15.40;38.68;101243.75;5013521;28;20049;-78
2021/04/28 07:48:18;;;;;;;18.95;5.30;;;;;;;16.30;37.46;101243.22;5014840;28;20487;-78
2021/04/28 07:50:45;;;;;;;11.18;6.07;;;;;;;16.01;37.65;101249.66;5013813;28;20041;-77
2021/04/28 07:53:11;;;;;;;10.23;5.28;;;;;;;16.01;37.51;101262.63;5013808;28;20702;-78
2021/04/28 07:55:38;;;;;;;18.13;7.53;;;;;;;16.38;37.11;101260.84;5012769;28;20040;-77
2021/04/28 07:58:07;;;;;;;18.20;6.53;;;;;;;16.70;37.17;101264.78;5012871;28;20488;-77
2021/04/28 08:00:32;;;;;;;10.30;5.07;;;;;;;16.46;36.95;101257.19;5014378;28;20041;-77
2021/04/28 08:02:58;;;;;;;23.48;6.78;;;;;;;15.88;38.21;101261.78;5022033;28;20025;-79
2021/04/28 08:05:24;;;;;;;13.45;6.40;;;;;;;15.88;38.49;101253.50;5019136;28;20014;-79
2021/04/28 08:07:50;;;;;;;20.38;6.32;;;;;;;16.31;38.11;101266.09;5023141;28;20029;-79
2021/04/28 08:10:16;;;;;;;13.07;5.22;;;;;;;16.40;37.51;101263.25;5020741;28;20075;-80
2021/04/28 08:12:42;;;;;;;10.82;4.55;;;;;;;16.15;37.09;101268.66;5037633;28;20017;-79
2021/04/28 08:15:08;;;;;;;10.75;4.30;;;;;;;16.37;36.95;101271.06;5022817;28;20091;-79
2021/04/28 08:17:35;;;;;;;20.88;5.20;;;;;;;16.31;37.10;101253.09;5021416;28;20025;-79
2021/04/28 08:20:01;;;;;;;9.55;4.70;;;;;;;15.98;37.90;101258.59;5023643;28;20030;-77
2021/04/28 08:22:27;;;;;;;11.07;4.75;;;;;;;16.99;36.44;101266.53;5020861;28;20065;-79
2021/04/28 08:24:53;;;;;;;11.98;4.85;;;;;;;16.45;36.32;101279.59;5022398;28;20041;-79
2021/04/28 08:27:20;;;;;;;13.55;5.03;;;;;;;16.65;35.88;101270.47;5025977;28;20397;-80
2021/04/28 08:29:46;;;;;;;8.27;4.30;;;;;;;16.54;35.95;101261.00;5020718;28;20115;-79
2021/04/28 08:32:12;;;;;;;12.10;5.57;;;;;;;16.52;36.22;101271.56;5022478;28;20049;-79
2021/04/28 08:34:37;;;;;;;13.32;5.43;;;;;;;17.22;35.68;101274.38;5019204;28;20037;-79
2021/04/28 08:37:03;;;;;;;16.58;5.68;;;;;;;16.78;36.36;101274.09;5020922;28;20021;-79
2021/04/28 08:39:29;;;;;;;14.27;4.75;;;;;;;16.96;36.37;101275.50;5020763;28;20014;-79
2021/04/28 08:41:54;;;;;;;10.23;4.90;;;;;;;16.17;37.21;101282.13;5021977;28;20018;-77
2021/04/28 08:44:20;;;;;;;9.13;4.60;;;;;;;16.25;36.67;101282.06;5022056;28;20109;-78
2021/04/28 08:46:47;;;;;;;9.82;4.93;;;;;;;15.99;36.83;101276.75;5020048;28;20187;-79
2021/04/28 08:49:13;;;;;;;8.77;3.83;;;;;;;16.26;36.84;101285.63;5018856;28;20018;-76
2021/04/28 08:51:39;;;;;;;13.10;4.60;;;;;;;16.54;36.96;101275.59;5018908;28;20510;-79
2021/04/28 08:54:05;;;;;;;11.70;5.60;;;;;;;16.62;36.23;101283.00;5021264;28;20043;-80
2021/04/28 08:56:32;;;;;;;15.73;5.15;;;;;;;17.11;35.15;101280.34;5020888;28;20025;-77
2021/04/28 08:58:58;;;;;;;13.23;5.05;;;;;;;16.68;35.80;101285.53;5020055;28;20380;-77
2021/04/28 09:01:29;;;;;;;8.18;4.45;;;;;;;16.60;35.92;101285.28;5021671;28;20053;-80
2021/04/28 09:03:58;;;;;;;14.05;5.28;;;;;;;16.87;35.26;101288.59;5021200;28;20038;-80
2021/04/28 09:06:34;;;;;;;9.73;4.38;;;;;;;16.75;36.10;101296.84;5022446;28;20021;-77
2021/04/28 09:09:05;;;;;;;9.75;4.47;;;;;;;17.07;36.09;101290.47;5019660;28;20602;-76
2021/04/28 09:11:46;;;;;;;9.05;4.35;;;;;;;17.27;35.10;101290.72;5018252;28;20472;-76
2021/04/28 09:14:17;;;;;;;10.85;4.90;;;;;;;17.37;34.15;101287.47;5007362;28;20057;-76
2021/04/28 09:16:56;;;;;;;9.90;4.43;;;;;;;17.04;35.00;101293.09;5020370;28;20026;-76
2021/04/28 09:19:33;;;;;;;11.52;5.18;;;;;;;17.06;34.82;101275.03;5018986;28;20022;-77
2021/04/28 09:22:03;;;;;;;11.48;4.93;;;;;;;17.52;34.60;101272.97;5035443;28;20021;-77
2021/04/28 09:24:33;;;;;;;13.48;5.45;;;;;;;17.45;34.81;101289.31;5020266;28;20442;-78
2021/04/28 09:27:00;;;;;;;18.80;5.35;;;;;;;17.57;34.58;101283.00;5020922;28;20480;-78
2021/04/28 09:29:29;;;;;;;10.48;4.78;;;;;;;17.77;34.17;101284.03;5021733;28;20038;-79
2021/04/28 09:32:06;;;;;;;9.98;4.90;;;;;;;17.43;34.45;101289.66;5020148;28;20025;-79
2021/04/28 09:34:39;;;;;;;11.55;4.43;;;;;;;16.98;34.66;101281.47;5019712;28;20084;-78
2021/04/28 09:37:16;;;;;;;8.65;4.38;;;;;;;17.54;34.25;101292.78;5020364;28;20037;-79
2021/04/28 09:39:45;;;;;;;11.60;4.80;;;;;;;17.60;34.29;101296.09;5011660;28;20034;-78
2021/04/28 09:42:12;;;;;;;10.80;4.28;;;;;;;17.76;34.40;101297.06;5012662;28;20034;-78
2021/04/28 09:44:39;;;;;;;12.38;4.63;;;;;;;18.35;33.92;101298.38;5013825;28;20053;-78
2021/04/28 09:47:22;;;;;;;12.88;5.22;;;;;;;18.29;33.87;101293.09;5013827;28;20042;-77
2021/04/28 09:49:58;;;;;;;8.35;4.50;;;;;;;17.87;34.18;101289.88;5014151;28;20068;-77
2021/04/28 09:52:40;;;;;;;12.63;5.43;;;;;;;17.90;33.47;101302.19;5013709;28;20033;-77
2021/04/28 09:55:08;;;;;;;15.90;4.97;;;;;;;18.19;33.75;101292.78;5013511;28;20030;-78
2021/04/28 09:57:41;;;;;;;12.35;4.20;;;;;;;17.78;33.18;101291.97;5013657;28;20490;-79
2021/04/28 10:00:28;;;;;;;12.13;4.75;;;;;;;17.94;33.62;101297.59;5006203;28;20072;-79
2021/04/28 10:03:11;;;;;;;12.90;4.93;;;;;;;17.79;33.87;101298.31;5025224;28;20033;-79
2021/04/28 10:05:41;;;;;;;14.32;4.60;;;;;;;18.41;33.34;101321.88;5023383;28;20091;-81
2021/04/28 10:08:07;;;;;;;10.70;5.15;;;;;;;18.41;33.35;101305.25;5023148;28;20074;-79
2021/04/28 10:10:34;;;;;;;12.70;5.50;;;;;;;18.28;33.84;101310.84;5024860;28;20057;-81
2021/04/28 10:13:00;;;;;;;18.20;6.38;;;;;;;18.65;33.36;101313.44;5041955;28;20038;-79
2021/04/28 10:15:25;;;;;;;10.63;4.53;;;;;;;18.47;32.79;101303.84;5028219;28;20026;-81
2021/04/28 10:17:53;;;;;;;20.05;5.90;;;;;;;18.75;33.10;101312.97;5025312;28;20028;-79
2021/04/28 10:20:20;;;;;;;10.77;4.32;;;;;;;19.15;32.15;101303.72;5023896;28;20540;-81
2021/04/28 10:22:46;;;;;;;11.77;4.43;;;;;;;18.96;32.35;101298.88;5023184;28;20446;-78
2021/04/28 10:25:14;;;;;;;10.98;3.95;;;;;;;18.07;33.20;101292.84;5025347;28;20416;-80
2021/04/28 10:27:40;;;;;;;11.15;4.35;;;;;;;18.15;33.49;101309.28;5026280;28;20020;-79
2021/04/28 10:30:07;;;;;;;16.25;5.03;;;;;;;18.37;32.87;101309.91;5026882;28;20017;-79
2021/04/28 10:32:36;;;;;;;9.02;4.60;;;;;;;18.50;32.88;101308.69;5024787;28;20018;-80
2021/04/28 10:35:12;;;;;;;9.43;4.03;;;;;;;17.92;33.62;101297.13;5024720;28;20032;-79
2021/04/28 10:37:41;;;;;;;10.32;5.07;;;;;;;17.67;33.77;101299.09;5024416;28;20086;-81
2021/04/28 10:40:12;;;;;;;16.48;5.35;;;;;;;18.00;34.20;101308.06;5022280;28;20539;-80
2021/04/28 10:42:39;;;;;;;8.85;4.70;;;;;;;17.35;34.81;101303.59;5022652;28;20026;-79
2021/04/28 10:45:24;;;;;;;12.25;4.45;;;;;;;17.77;34.65;101293.13;5023211;28;20481;-77
2021/04/28 10:47:57;;;;;;;15.60;4.75;;;;;;;18.13;34.78;101305.25;5046217;28;20083;-81
2021/04/28 10:50:25;;;;;;;8.65;4.03;;;;;;;17.63;34.38;101314.75;5022834;28;20021;-79
2021/04/28 10:53:28;;;;;;;9.98;4.70;;;;;;;18.70;33.75;101298.59;5024044;28;20108;-80
2021/04/28 10:56:12;;;;;;;14.07;4.38;;;;;;;18.67;33.30;101310.38;5024983;28;20029;-78
2021/04/28 10:58:47;;;;;;;9.40;4.18;;;;;;;18.61;33.76;101295.94;5024633;28;20033;-78
2021/04/28 11:01:21;;;;;;;9.05;3.55;;;;;;;18.18;34.11;101280.13;5023905;28;20040;-80
2021/04/28 11:03:51;;;;;;;11.05;4.03;;;;;;;18.77;34.00;101287.69;5024255;28;20475;-78
2021/04/28 11:06:19;;;;;;;10.52;4.97;;;;;;;18.93;34.10;101282.19;5025199;28;20519;-78
2021/04/28 11:08:45;;;;;;;11.98;4.07;;;;;;;18.89;33.92;101282.06;5022145;28;20076;-80
2021/04/28 11:11:37;;;;;;;8.98;4.43;;;;;;;18.31;33.27;101284.44;5024098;28;20025;-78
2021/04/28 11:14:15;;;;;;;6.85;3.95;;;;;;;18.06;33.81;101289.28;5022400;28;20033;-80
2021/04/28 11:16:41;;;;;;;9.23;4.72;;;;;;;17.89;34.11;101284.78;5019350;28;20029;-78
2021/04/28 11:19:29;;;;;;;8.95;3.97;;;;;;;18.48;33.35;101283.31;5022100;28;20033;-79
2021/04/28 11:22:07;;;;;;;12.75;4.38;;;;;;;18.71;33.05;101287.16;5022108;28;20063;-81